sensor_id;sensor_type;location;lat;lon;timestamp;temperature;humidity
10336;DHT22;5213;53.548;9.930;2023-07-20T00:01:35;13.70;57.60
10336;DHT22;5213;53.548;9.930;2023-07-20T00:04:01;13.90;59.30
10336;DHT22;5213;53.548;9.930;2023-07-20T00:06:27;14.10;68.80
10336;DHT22;5213;53.548;9.930;2023-07-20T00:08:56;14.10;68.90
10336;DHT22;5213;53.548;9.930;2023-07-20T00:11:26;13.90;69.50
10336;DHT22;5213;53.548;9.930;2023-07-20T00:13:52;14.10;68.40
10336;DHT22;5213;53.548;9.930;2023-07-20T00:16:18;14.00;73.00
10336;DHT22;5213;53.548;9.930;2023-07-20T00:18:44;14.00;71.60
10336;DHT22;5213;53.548;9.930;2023-07-20T00:21:10;14.10;74.70
10336;DHT22;5213;53.548;9.930;2023-07-20T00:23:35;14.10;76.80
10336;DHT22;5213;53.548;9.930;2023-07-20T00:26:01;14.10;79.20
10336;DHT22;5213;53.548;9.930;2023-07-20T00:28:27;14.40;84.30
10336;DHT22;5213;53.548;9.930;2023-07-20T00:30:53;14.50;82.70
10336;DHT22;5213;53.548;9.930;2023-07-20T00:33:18;14.20;75.10
10336;DHT22;5213;53.548;9.930;2023-07-20T00:35:44;14.20;85.40
10336;DHT22;5213;53.548;9.930;2023-07-20T00:38:10;14.30;72.70
10336;DHT22;5213;53.548;9.930;2023-07-20T00:40:40;14.40;62.20
10336;DHT22;5213;53.548;9.930;2023-07-20T00:43:06;14.30;57.60
10336;DHT22;5213;53.548;9.930;2023-07-20T00:45:33;14.30;52.60
10336;DHT22;5213;53.548;9.930;2023-07-20T00:48:01;14.50;54.60
10336;DHT22;5213;53.548;9.930;2023-07-20T00:50:28;14.40;54.00
10336;DHT22;5213;53.548;9.930;2023-07-20T00:52:57;14.40;81.70
10336;DHT22;5213;53.548;9.930;2023-07-20T00:55:24;14.30;59.90
10336;DHT22;5213;53.548;9.930;2023-07-20T00:57:50;14.50;51.10
10336;DHT22;5213;53.548;9.930;2023-07-20T01:00:17;14.40;37.60
10336;DHT22;5213;53.548;9.930;2023-07-20T01:02:43;14.30;30.60
10336;DHT22;5213;53.548;9.930;2023-07-20T01:05:09;14.20;29.10
10336;DHT22;5213;53.548;9.930;2023-07-20T01:07:38;14.20;45.20
10336;DHT22;5213;53.548;9.930;2023-07-20T01:12:53;14.10;1.00
10336;DHT22;5213;53.548;9.930;2023-07-20T01:15:20;14.10;1.00
10336;DHT22;5213;53.548;9.930;2023-07-20T01:17:46;14.20;1.00
10336;DHT22;5213;53.548;9.930;2023-07-20T01:20:17;13.90;1.00
10336;DHT22;5213;53.548;9.930;2023-07-20T01:31:27;13.80;1.00
10336;DHT22;5213;53.548;9.930;2023-07-20T01:33:58;13.90;1.00
10336;DHT22;5213;53.548;9.930;2023-07-20T01:36:29;13.90;1.00
10336;DHT22;5213;53.548;9.930;2023-07-20T01:38:56;13.80;1.00
10336;DHT22;5213;53.548;9.930;2023-07-20T01:41:22;13.90;1.00
10336;DHT22;5213;53.548;9.930;2023-07-20T01:43:48;13.90;1.00
10336;DHT22;5213;53.548;9.930;2023-07-20T01:46:14;14.10;1.00
10336;DHT22;5213;53.548;9.930;2023-07-20T01:48:39;13.70;1.00
10336;DHT22;5213;53.548;9.930;2023-07-20T01:51:05;13.80;1.00
10336;DHT22;5213;53.548;9.930;2023-07-20T01:53:31;13.70;1.00
10336;DHT22;5213;53.548;9.930;2023-07-20T01:55:57;13.70;1.00
10336;DHT22;5213;53.548;9.930;2023-07-20T01:58:23;13.80;1.00
10336;DHT22;5213;53.548;9.930;2023-07-20T02:00:48;13.90;1.00
10336;DHT22;5213;53.548;9.930;2023-07-20T02:03:14;13.80;1.00
10336;DHT22;5213;53.548;9.930;2023-07-20T02:05:42;13.80;1.00
10336;DHT22;5213;53.548;9.930;2023-07-20T02:08:08;13.80;1.00
10336;DHT22;5213;53.548;9.930;2023-07-20T02:10:35;13.80;1.00
10336;DHT22;5213;53.548;9.930;2023-07-20T02:13:00;13.80;1.00
10336;DHT22;5213;53.548;9.930;2023-07-20T02:15:26;13.80;1.00
10336;DHT22;5213;53.548;9.930;2023-07-20T02:17:52;13.90;1.00
10336;DHT22;5213;53.548;9.930;2023-07-20T02:20:18;13.80;16.10
10336;DHT22;5213;53.548;9.930;2023-07-20T02:22:45;13.70;1.00
10336;DHT22;5213;53.548;9.930;2023-07-20T02:25:10;13.70;1.00
10336;DHT22;5213;53.548;9.930;2023-07-20T02:27:37;13.70;1.00
10336;DHT22;5213;53.548;9.930;2023-07-20T02:30:03;13.90;1.00
10336;DHT22;5213;53.548;9.930;2023-07-20T02:32:30;13.80;1.00
10336;DHT22;5213;53.548;9.930;2023-07-20T02:34:56;13.70;1.00
10336;DHT22;5213;53.548;9.930;2023-07-20T02:37:21;14.00;1.00
10336;DHT22;5213;53.548;9.930;2023-07-20T02:40:09;13.70;1.00
10336;DHT22;5213;53.548;9.930;2023-07-20T02:42:36;13.80;1.00
10336;DHT22;5213;53.548;9.930;2023-07-20T02:45:02;13.80;1.00
10336;DHT22;5213;53.548;9.930;2023-07-20T02:47:29;13.70;1.00
10336;DHT22;5213;53.548;9.930;2023-07-20T02:49:55;13.90;1.00
10336;DHT22;5213;53.548;9.930;2023-07-20T02:52:20;13.80;1.00
10336;DHT22;5213;53.548;9.930;2023-07-20T02:57:12;13.70;1.00
10336;DHT22;5213;53.548;9.930;2023-07-20T02:59:38;13.80;28.40
10336;DHT22;5213;53.548;9.930;2023-07-20T03:02:04;13.70;1.00
10336;DHT22;5213;53.548;9.930;2023-07-20T03:04:29;13.60;1.00
10336;DHT22;5213;53.548;9.930;2023-07-20T03:06:55;13.60;1.00
10336;DHT22;5213;53.548;9.930;2023-07-20T03:09:21;13.60;1.00
10336;DHT22;5213;53.548;9.930;2023-07-20T03:11:47;13.80;1.00
10336;DHT22;5213;53.548;9.930;2023-07-20T03:14:13;13.70;1.00
10336;DHT22;5213;53.548;9.930;2023-07-20T03:16:39;13.60;1.00
10336;DHT22;5213;53.548;9.930;2023-07-20T03:19:04;13.60;1.00
10336;DHT22;5213;53.548;9.930;2023-07-20T03:21:30;13.60;1.00
10336;DHT22;5213;53.548;9.930;2023-07-20T03:23:55;13.60;1.00
10336;DHT22;5213;53.548;9.930;2023-07-20T03:26:21;13.70;1.00
10336;DHT22;5213;53.548;9.930;2023-07-20T03:28:47;13.60;1.00
10336;DHT22;5213;53.548;9.930;2023-07-20T03:31:13;13.70;1.00
10336;DHT22;5213;53.548;9.930;2023-07-20T03:33:40;13.60;1.00
10336;DHT22;5213;53.548;9.930;2023-07-20T03:36:06;13.60;1.00
10336;DHT22;5213;53.548;9.930;2023-07-20T03:38:31;13.60;1.00
10336;DHT22;5213;53.548;9.930;2023-07-20T03:40:59;13.50;1.00
10336;DHT22;5213;53.548;9.930;2023-07-20T03:43:27;13.60;1.00
10336;DHT22;5213;53.548;9.930;2023-07-20T03:45:52;13.90;1.00
10336;DHT22;5213;53.548;9.930;2023-07-20T03:48:21;13.90;1.00
10336;DHT22;5213;53.548;9.930;2023-07-20T03:50:48;13.70;1.00
10336;DHT22;5213;53.548;9.930;2023-07-20T03:53:14;13.60;1.00
10336;DHT22;5213;53.548;9.930;2023-07-20T03:55:41;13.70;1.00
10336;DHT22;5213;53.548;9.930;2023-07-20T03:58:10;13.80;1.00
10336;DHT22;5213;53.548;9.930;2023-07-20T04:00:35;13.90;1.00
10336;DHT22;5213;53.548;9.930;2023-07-20T04:03:01;14.10;1.00
10336;DHT22;5213;53.548;9.930;2023-07-20T04:05:26;13.90;1.00
10336;DHT22;5213;53.548;9.930;2023-07-20T04:07:52;13.90;1.00
10336;DHT22;5213;53.548;9.930;2023-07-20T04:10:19;13.90;1.00
10336;DHT22;5213;53.548;9.930;2023-07-20T04:12:45;14.00;1.00
10336;DHT22;5213;53.548;9.930;2023-07-20T04:15:13;13.90;1.00
10336;DHT22;5213;53.548;9.930;2023-07-20T04:17:38;14.20;1.00
10336;DHT22;5213;53.548;9.930;2023-07-20T04:20:05;14.10;1.00
10336;DHT22;5213;53.548;9.930;2023-07-20T04:22:31;14.00;1.00
10336;DHT22;5213;53.548;9.930;2023-07-20T04:24:57;14.00;1.00
10336;DHT22;5213;53.548;9.930;2023-07-20T04:27:22;14.10;1.00
10336;DHT22;5213;53.548;9.930;2023-07-20T04:29:48;14.00;1.00
10336;DHT22;5213;53.548;9.930;2023-07-20T04:32:13;14.00;1.00
10336;DHT22;5213;53.548;9.930;2023-07-20T04:34:39;14.10;62.50
10336;DHT22;5213;53.548;9.930;2023-07-20T04:37:05;14.20;1.00
10336;DHT22;5213;53.548;9.930;2023-07-20T04:39:30;14.30;30.00
10336;DHT22;5213;53.548;9.930;2023-07-20T04:41:56;14.30;99.90
10336;DHT22;5213;53.548;9.930;2023-07-20T04:44:22;14.30;99.90
10336;DHT22;5213;53.548;9.930;2023-07-20T04:46:47;14.50;99.90
10336;DHT22;5213;53.548;9.930;2023-07-20T04:49:13;14.60;99.90
10336;DHT22;5213;53.548;9.930;2023-07-20T04:51:39;14.60;99.90
10336;DHT22;5213;53.548;9.930;2023-07-20T04:54:05;14.60;99.90
10336;DHT22;5213;53.548;9.930;2023-07-20T04:56:30;15.10;65.30
10336;DHT22;5213;53.548;9.930;2023-07-20T04:58:56;14.90;83.50
10336;DHT22;5213;53.548;9.930;2023-07-20T05:01:23;14.70;90.50
10336;DHT22;5213;53.548;9.930;2023-07-20T05:03:48;14.90;77.90
10336;DHT22;5213;53.548;9.930;2023-07-20T05:06:14;15.10;45.60
10336;DHT22;5213;53.548;9.930;2023-07-20T05:08:40;15.30;72.80
10336;DHT22;5213;53.548;9.930;2023-07-20T05:11:06;15.70;90.90
10336;DHT22;5213;53.548;9.930;2023-07-20T05:13:32;15.70;99.90
10336;DHT22;5213;53.548;9.930;2023-07-20T05:15:58;15.70;53.40
10336;DHT22;5213;53.548;9.930;2023-07-20T05:18:24;15.50;29.90
10336;DHT22;5213;53.548;9.930;2023-07-20T05:20:50;15.40;15.60
10336;DHT22;5213;53.548;9.930;2023-07-20T05:23:17;15.50;6.60
10336;DHT22;5213;53.548;9.930;2023-07-20T05:25:43;15.60;16.80
10336;DHT22;5213;53.548;9.930;2023-07-20T05:28:09;15.50;16.50
10336;DHT22;5213;53.548;9.930;2023-07-20T05:30:35;15.60;22.30
10336;DHT22;5213;53.548;9.930;2023-07-20T05:33:00;15.50;27.80
10336;DHT22;5213;53.548;9.930;2023-07-20T05:35:26;15.20;4.60
10336;DHT22;5213;53.548;9.930;2023-07-20T05:37:52;15.30;3.00
10336;DHT22;5213;53.548;9.930;2023-07-20T05:40:18;15.40;14.80
10336;DHT22;5213;53.548;9.930;2023-07-20T05:42:45;15.40;27.90
10336;DHT22;5213;53.548;9.930;2023-07-20T05:45:15;15.60;20.60
10336;DHT22;5213;53.548;9.930;2023-07-20T05:47:42;15.60;25.80
10336;DHT22;5213;53.548;9.930;2023-07-20T05:50:08;15.50;11.60
10336;DHT22;5213;53.548;9.930;2023-07-20T05:52:34;15.50;1.00
10336;DHT22;5213;53.548;9.930;2023-07-20T05:55:00;15.40;1.00
10336;DHT22;5213;53.548;9.930;2023-07-20T05:57:25;15.50;1.00
10336;DHT22;5213;53.548;9.930;2023-07-20T05:59:51;15.50;5.20
10336;DHT22;5213;53.548;9.930;2023-07-20T06:02:17;15.50;1.00
10336;DHT22;5213;53.548;9.930;2023-07-20T06:04:42;15.60;45.50
10336;DHT22;5213;53.548;9.930;2023-07-20T06:07:08;16.10;30.90
10336;DHT22;5213;53.548;9.930;2023-07-20T06:09:34;16.00;42.30
10336;DHT22;5213;53.548;9.930;2023-07-20T06:12:00;16.00;21.60
10336;DHT22;5213;53.548;9.930;2023-07-20T06:14:25;15.90;26.40
10336;DHT22;5213;53.548;9.930;2023-07-20T06:16:51;15.70;7.30
10336;DHT22;5213;53.548;9.930;2023-07-20T06:19:16;16.10;2.50
10336;DHT22;5213;53.548;9.930;2023-07-20T06:21:43;16.20;23.00
10336;DHT22;5213;53.548;9.930;2023-07-20T06:24:08;16.30;64.40
10336;DHT22;5213;53.548;9.930;2023-07-20T06:26:34;16.70;99.90
10336;DHT22;5213;53.548;9.930;2023-07-20T06:29:07;16.90;99.90
10336;DHT22;5213;53.548;9.930;2023-07-20T06:31:35;17.30;77.50
10336;DHT22;5213;53.548;9.930;2023-07-20T06:34:01;17.70;33.20
10336;DHT22;5213;53.548;9.930;2023-07-20T06:36:26;17.40;20.80
10336;DHT22;5213;53.548;9.930;2023-07-20T06:38:52;16.70;32.60
10336;DHT22;5213;53.548;9.930;2023-07-20T06:41:18;16.30;1.00
10336;DHT22;5213;53.548;9.930;2023-07-20T06:43:44;16.20;1.00
10336;DHT22;5213;53.548;9.930;2023-07-20T06:46:10;15.90;1.00
10336;DHT22;5213;53.548;9.930;2023-07-20T06:48:35;16.00;1.00
10336;DHT22;5213;53.548;9.930;2023-07-20T06:51:01;16.20;1.00
10336;DHT22;5213;53.548;9.930;2023-07-20T06:53:28;16.20;1.00
10336;DHT22;5213;53.548;9.930;2023-07-20T06:55:54;16.50;1.00
10336;DHT22;5213;53.548;9.930;2023-07-20T06:58:19;16.70;1.00
10336;DHT22;5213;53.548;9.930;2023-07-20T07:00:47;17.00;1.00
10336;DHT22;5213;53.548;9.930;2023-07-20T07:03:12;17.60;1.00
10336;DHT22;5213;53.548;9.930;2023-07-20T07:05:38;17.40;1.00
10336;DHT22;5213;53.548;9.930;2023-07-20T07:08:05;17.60;1.00
10336;DHT22;5213;53.548;9.930;2023-07-20T07:10:30;17.20;1.00
10336;DHT22;5213;53.548;9.930;2023-07-20T07:12:56;17.30;1.00
10336;DHT22;5213;53.548;9.930;2023-07-20T07:15:22;17.40;1.00
10336;DHT22;5213;53.548;9.930;2023-07-20T07:17:47;17.60;1.00
10336;DHT22;5213;53.548;9.930;2023-07-20T07:20:13;17.70;1.00
10336;DHT22;5213;53.548;9.930;2023-07-20T07:22:39;18.00;1.00
10336;DHT22;5213;53.548;9.930;2023-07-20T07:25:05;17.80;1.00
10336;DHT22;5213;53.548;9.930;2023-07-20T07:27:30;18.00;1.00
10336;DHT22;5213;53.548;9.930;2023-07-20T07:29:56;18.60;1.00
10336;DHT22;5213;53.548;9.930;2023-07-20T07:32:22;19.10;1.00
10336;DHT22;5213;53.548;9.930;2023-07-20T07:34:47;18.70;1.00
10336;DHT22;5213;53.548;9.930;2023-07-20T07:37:14;18.10;1.00
10336;DHT22;5213;53.548;9.930;2023-07-20T07:39:39;17.60;1.00
10336;DHT22;5213;53.548;9.930;2023-07-20T07:42:05;17.30;1.00
10336;DHT22;5213;53.548;9.930;2023-07-20T07:44:31;17.10;1.00
10336;DHT22;5213;53.548;9.930;2023-07-20T07:46:57;17.20;1.00
10336;DHT22;5213;53.548;9.930;2023-07-20T07:49:23;17.70;1.00
10336;DHT22;5213;53.548;9.930;2023-07-20T07:51:48;17.50;1.00
10336;DHT22;5213;53.548;9.930;2023-07-20T07:54:14;17.80;1.00
10336;DHT22;5213;53.548;9.930;2023-07-20T07:56:40;17.90;1.00
10336;DHT22;5213;53.548;9.930;2023-07-20T07:59:06;17.80;1.00
10336;DHT22;5213;53.548;9.930;2023-07-20T08:01:32;18.20;1.00
10336;DHT22;5213;53.548;9.930;2023-07-20T08:03:57;18.50;1.00
10336;DHT22;5213;53.548;9.930;2023-07-20T08:06:23;18.90;1.00
10336;DHT22;5213;53.548;9.930;2023-07-20T08:08:50;18.80;1.00
10336;DHT22;5213;53.548;9.930;2023-07-20T08:11:15;19.10;1.00
10336;DHT22;5213;53.548;9.930;2023-07-20T08:13:43;18.80;1.00
10336;DHT22;5213;53.548;9.930;2023-07-20T08:16:09;18.30;1.00
10336;DHT22;5213;53.548;9.930;2023-07-20T08:18:34;18.20;1.00
10336;DHT22;5213;53.548;9.930;2023-07-20T08:21:00;18.20;1.00
10336;DHT22;5213;53.548;9.930;2023-07-20T08:23:26;18.40;1.00
10336;DHT22;5213;53.548;9.930;2023-07-20T08:25:53;18.40;1.00
10336;DHT22;5213;53.548;9.930;2023-07-20T08:28:18;18.30;1.00
10336;DHT22;5213;53.548;9.930;2023-07-20T08:30:46;18.70;1.00
10336;DHT22;5213;53.548;9.930;2023-07-20T08:33:17;18.90;1.00
10336;DHT22;5213;53.548;9.930;2023-07-20T08:35:46;19.30;1.00
10336;DHT22;5213;53.548;9.930;2023-07-20T08:38:11;19.60;99.90
10336;DHT22;5213;53.548;9.930;2023-07-20T08:40:42;19.60;99.90
10336;DHT22;5213;53.548;9.930;2023-07-20T08:43:11;19.40;99.90
10336;DHT22;5213;53.548;9.930;2023-07-20T08:45:38;19.10;99.90
10336;DHT22;5213;53.548;9.930;2023-07-20T08:48:06;18.70;1.00
10336;DHT22;5213;53.548;9.930;2023-07-20T08:50:32;18.30;1.00
10336;DHT22;5213;53.548;9.930;2023-07-20T08:52:59;18.00;1.00
10336;DHT22;5213;53.548;9.930;2023-07-20T08:55:29;17.90;1.00
10336;DHT22;5213;53.548;9.930;2023-07-20T08:58:00;18.30;1.00
10336;DHT22;5213;53.548;9.930;2023-07-20T09:00:26;18.20;1.00
10336;DHT22;5213;53.548;9.930;2023-07-20T09:02:54;18.20;1.00
10336;DHT22;5213;53.548;9.930;2023-07-20T09:05:21;18.60;1.00
10336;DHT22;5213;53.548;9.930;2023-07-20T09:07:48;19.10;1.00
10336;DHT22;5213;53.548;9.930;2023-07-20T09:10:13;19.10;1.00
10336;DHT22;5213;53.548;9.930;2023-07-20T09:12:41;19.40;1.00
10336;DHT22;5213;53.548;9.930;2023-07-20T09:15:08;19.60;99.90
10336;DHT22;5213;53.548;9.930;2023-07-20T09:17:34;20.10;99.90
10336;DHT22;5213;53.548;9.930;2023-07-20T09:20:04;20.20;99.90
10336;DHT22;5213;53.548;9.930;2023-07-20T09:22:34;20.00;99.90
10336;DHT22;5213;53.548;9.930;2023-07-20T09:24:59;20.40;99.90
10336;DHT22;5213;53.548;9.930;2023-07-20T09:27:35;20.20;99.90
10336;DHT22;5213;53.548;9.930;2023-07-20T09:30:01;19.80;99.90
10336;DHT22;5213;53.548;9.930;2023-07-20T09:32:27;17.30;1.00
10336;DHT22;5213;53.548;9.930;2023-07-20T09:34:53;15.80;1.00
10336;DHT22;5213;53.548;9.930;2023-07-20T09:37:22;14.70;1.00
10336;DHT22;5213;53.548;9.930;2023-07-20T09:39:48;14.50;1.00
10336;DHT22;5213;53.548;9.930;2023-07-20T09:42:16;14.80;1.00
10336;DHT22;5213;53.548;9.930;2023-07-20T09:44:45;14.70;1.00
10336;DHT22;5213;53.548;9.930;2023-07-20T09:47:11;14.60;1.00
10336;DHT22;5213;53.548;9.930;2023-07-20T09:49:40;14.80;1.00
10336;DHT22;5213;53.548;9.930;2023-07-20T09:52:08;15.10;1.00
10336;DHT22;5213;53.548;9.930;2023-07-20T09:54:34;15.30;1.00
10336;DHT22;5213;53.548;9.930;2023-07-20T09:57:02;15.70;1.00
10336;DHT22;5213;53.548;9.930;2023-07-20T09:59:28;16.00;1.00
10336;DHT22;5213;53.548;9.930;2023-07-20T10:01:57;16.40;1.00
10336;DHT22;5213;53.548;9.930;2023-07-20T10:04:24;16.80;1.00
10336;DHT22;5213;53.548;9.930;2023-07-20T10:06:52;17.30;1.00
10336;DHT22;5213;53.548;9.930;2023-07-20T10:09:20;17.50;1.00
10336;DHT22;5213;53.548;9.930;2023-07-20T10:11:50;17.90;1.00
10336;DHT22;5213;53.548;9.930;2023-07-20T10:14:22;18.00;1.00
10336;DHT22;5213;53.548;9.930;2023-07-20T10:16:54;17.80;1.00
10336;DHT22;5213;53.548;9.930;2023-07-20T10:19:43;18.00;1.00
10336;DHT22;5213;53.548;9.930;2023-07-20T10:22:14;17.70;1.00
10336;DHT22;5213;53.548;9.930;2023-07-20T10:24:45;18.00;1.00
10336;DHT22;5213;53.548;9.930;2023-07-20T10:27:11;18.60;1.00
10336;DHT22;5213;53.548;9.930;2023-07-20T10:29:37;18.60;1.00
10336;DHT22;5213;53.548;9.930;2023-07-20T10:32:03;18.60;1.00
10336;DHT22;5213;53.548;9.930;2023-07-20T10:34:29;19.00;1.00
10336;DHT22;5213;53.548;9.930;2023-07-20T10:36:55;19.30;1.00
10336;DHT22;5213;53.548;9.930;2023-07-20T10:39:28;19.20;1.00
10336;DHT22;5213;53.548;9.930;2023-07-20T10:42:09;18.90;1.00
10336;DHT22;5213;53.548;9.930;2023-07-20T10:44:37;18.50;1.00
10336;DHT22;5213;53.548;9.930;2023-07-20T10:47:08;18.00;1.00
10336;DHT22;5213;53.548;9.930;2023-07-20T10:49:34;17.90;1.00
10336;DHT22;5213;53.548;9.930;2023-07-20T10:52:05;18.00;1.00
10336;DHT22;5213;53.548;9.930;2023-07-20T10:57:24;19.20;1.00
10336;DHT22;5213;53.548;9.930;2023-07-20T10:59:49;19.20;1.00
10336;DHT22;5213;53.548;9.930;2023-07-20T11:02:18;19.00;1.00
10336;DHT22;5213;53.548;9.930;2023-07-20T11:04:46;18.60;1.00
10336;DHT22;5213;53.548;9.930;2023-07-20T11:07:16;18.20;1.00
10336;DHT22;5213;53.548;9.930;2023-07-20T11:09:42;18.00;1.00
10336;DHT22;5213;53.548;9.930;2023-07-20T11:12:17;18.20;1.00
10336;DHT22;5213;53.548;9.930;2023-07-20T11:14:56;18.30;1.00
10336;DHT22;5213;53.548;9.930;2023-07-20T11:17:32;18.00;1.00
10336;DHT22;5213;53.548;9.930;2023-07-20T11:19:59;17.90;1.00
10336;DHT22;5213;53.548;9.930;2023-07-20T11:22:26;17.90;1.00
10336;DHT22;5213;53.548;9.930;2023-07-20T11:24:55;18.00;1.00
10336;DHT22;5213;53.548;9.930;2023-07-20T11:27:21;18.10;1.00
10336;DHT22;5213;53.548;9.930;2023-07-20T11:29:48;18.20;1.00
10336;DHT22;5213;53.548;9.930;2023-07-20T11:32:21;17.90;1.00
10336;DHT22;5213;53.548;9.930;2023-07-20T11:34:48;18.10;1.00
10336;DHT22;5213;53.548;9.930;2023-07-20T11:37:14;18.10;1.00
10336;DHT22;5213;53.548;9.930;2023-07-20T11:39:40;18.50;1.00
10336;DHT22;5213;53.548;9.930;2023-07-20T11:42:06;18.60;1.00
10336;DHT22;5213;53.548;9.930;2023-07-20T11:44:34;19.00;99.90
10336;DHT22;5213;53.548;9.930;2023-07-20T11:47:04;19.30;99.90
10336;DHT22;5213;53.548;9.930;2023-07-20T11:49:30;19.20;99.90
10336;DHT22;5213;53.548;9.930;2023-07-20T11:51:57;19.60;99.90
10336;DHT22;5213;53.548;9.930;2023-07-20T11:54:24;19.90;99.90
10336;DHT22;5213;53.548;9.930;2023-07-20T11:56:56;20.00;99.90
10336;DHT22;5213;53.548;9.930;2023-07-20T11:59:22;19.80;99.90
10336;DHT22;5213;53.548;9.930;2023-07-20T12:01:47;19.90;99.90
10336;DHT22;5213;53.548;9.930;2023-07-20T12:04:13;21.10;99.90
10336;DHT22;5213;53.548;9.930;2023-07-20T12:06:39;21.10;99.90
10336;DHT22;5213;53.548;9.930;2023-07-20T12:09:04;21.10;99.90
10336;DHT22;5213;53.548;9.930;2023-07-20T12:11:39;21.40;99.90
10336;DHT22;5213;53.548;9.930;2023-07-20T12:14:08;21.10;99.90
10336;DHT22;5213;53.548;9.930;2023-07-20T12:16:36;20.80;99.90
10336;DHT22;5213;53.548;9.930;2023-07-20T12:19:11;20.70;99.90
10336;DHT22;5213;53.548;9.930;2023-07-20T12:21:39;20.40;99.90
10336;DHT22;5213;53.548;9.930;2023-07-20T12:24:06;20.10;99.90
10336;DHT22;5213;53.548;9.930;2023-07-20T12:26:33;19.30;99.90
10336;DHT22;5213;53.548;9.930;2023-07-20T12:28:59;19.20;99.90
10336;DHT22;5213;53.548;9.930;2023-07-20T12:31:25;19.50;99.90
10336;DHT22;5213;53.548;9.930;2023-07-20T12:33:51;19.60;99.90
10336;DHT22;5213;53.548;9.930;2023-07-20T12:36:18;20.00;99.90
10336;DHT22;5213;53.548;9.930;2023-07-20T12:38:44;20.10;99.90
10336;DHT22;5213;53.548;9.930;2023-07-20T12:41:11;19.60;99.90
10336;DHT22;5213;53.548;9.930;2023-07-20T12:43:45;19.50;99.90
10336;DHT22;5213;53.548;9.930;2023-07-20T12:46:12;19.80;99.90
10336;DHT22;5213;53.548;9.930;2023-07-20T12:48:39;20.30;99.90
10336;DHT22;5213;53.548;9.930;2023-07-20T12:51:07;20.20;99.90
10336;DHT22;5213;53.548;9.930;2023-07-20T12:53:33;20.40;99.90
10336;DHT22;5213;53.548;9.930;2023-07-20T12:55:59;20.60;99.90
10336;DHT22;5213;53.548;9.930;2023-07-20T12:58:25;20.50;99.90
10336;DHT22;5213;53.548;9.930;2023-07-20T13:00:51;20.60;99.90
10336;DHT22;5213;53.548;9.930;2023-07-20T13:03:17;20.80;99.90
10336;DHT22;5213;53.548;9.930;2023-07-20T13:05:45;19.90;99.90
10336;DHT22;5213;53.548;9.930;2023-07-20T13:08:11;20.30;99.90
10336;DHT22;5213;53.548;9.930;2023-07-20T13:10:37;20.20;99.90
10336;DHT22;5213;53.548;9.930;2023-07-20T13:13:04;20.30;99.90
10336;DHT22;5213;53.548;9.930;2023-07-20T13:15:31;20.60;99.90
10336;DHT22;5213;53.548;9.930;2023-07-20T13:17:59;20.60;99.90
10336;DHT22;5213;53.548;9.930;2023-07-20T13:20:26;20.60;99.90
10336;DHT22;5213;53.548;9.930;2023-07-20T13:22:52;20.30;99.90
10336;DHT22;5213;53.548;9.930;2023-07-20T13:25:17;20.10;99.90
10336;DHT22;5213;53.548;9.930;2023-07-20T13:27:44;20.20;99.90
10336;DHT22;5213;53.548;9.930;2023-07-20T13:30:10;20.50;99.90
10336;DHT22;5213;53.548;9.930;2023-07-20T13:32:42;20.60;99.90
10336;DHT22;5213;53.548;9.930;2023-07-20T13:35:08;20.80;99.90
10336;DHT22;5213;53.548;9.930;2023-07-20T13:37:34;20.30;99.90
10336;DHT22;5213;53.548;9.930;2023-07-20T13:39:59;20.50;99.90
10336;DHT22;5213;53.548;9.930;2023-07-20T13:42:25;20.40;99.90
10336;DHT22;5213;53.548;9.930;2023-07-20T13:44:51;20.60;99.90
10336;DHT22;5213;53.548;9.930;2023-07-20T13:47:16;20.60;99.90
10336;DHT22;5213;53.548;9.930;2023-07-20T13:49:43;20.20;99.90
10336;DHT22;5213;53.548;9.930;2023-07-20T13:54:35;20.20;99.90
10336;DHT22;5213;53.548;9.930;2023-07-20T13:57:01;20.30;99.90
10336;DHT22;5213;53.548;9.930;2023-07-20T13:59:27;19.80;99.90
10336;DHT22;5213;53.548;9.930;2023-07-20T14:01:53;20.00;99.90
10336;DHT22;5213;53.548;9.930;2023-07-20T14:04:19;20.20;99.90
10336;DHT22;5213;53.548;9.930;2023-07-20T14:06:44;20.30;99.90
10336;DHT22;5213;53.548;9.930;2023-07-20T14:09:10;20.10;99.90
10336;DHT22;5213;53.548;9.930;2023-07-20T14:11:35;20.30;99.90
10336;DHT22;5213;53.548;9.930;2023-07-20T14:23:47;19.80;1.00
10336;DHT22;5213;53.548;9.930;2023-07-20T14:26:13;20.00;99.90
10336;DHT22;5213;53.548;9.930;2023-07-20T14:28:39;20.20;99.90
10336;DHT22;5213;53.548;9.930;2023-07-20T14:31:05;20.40;99.90
10336;DHT22;5213;53.548;9.930;2023-07-20T14:33:31;20.50;99.90
10336;DHT22;5213;53.548;9.930;2023-07-20T14:35:57;20.40;99.90
10336;DHT22;5213;53.548;9.930;2023-07-20T14:38:22;20.30;99.90
10336;DHT22;5213;53.548;9.930;2023-07-20T14:40:48;19.90;99.90
10336;DHT22;5213;53.548;9.930;2023-07-20T14:43:14;20.00;99.90
10336;DHT22;5213;53.548;9.930;2023-07-20T14:45:43;20.00;99.90
10336;DHT22;5213;53.548;9.930;2023-07-20T14:48:08;19.80;99.90
10336;DHT22;5213;53.548;9.930;2023-07-20T14:50:34;19.70;99.90
10336;DHT22;5213;53.548;9.930;2023-07-20T14:53:00;19.50;99.90
10336;DHT22;5213;53.548;9.930;2023-07-20T14:55:26;19.20;99.90
10336;DHT22;5213;53.548;9.930;2023-07-20T14:57:52;19.40;99.90
10336;DHT22;5213;53.548;9.930;2023-07-20T15:00:18;19.70;99.90
10336;DHT22;5213;53.548;9.930;2023-07-20T15:02:44;19.70;99.90
10336;DHT22;5213;53.548;9.930;2023-07-20T15:05:10;19.60;99.90
10336;DHT22;5213;53.548;9.930;2023-07-20T15:07:36;19.60;99.90
10336;DHT22;5213;53.548;9.930;2023-07-20T15:10:05;19.80;99.90
10336;DHT22;5213;53.548;9.930;2023-07-20T15:12:31;20.30;99.90
10336;DHT22;5213;53.548;9.930;2023-07-20T15:15:08;20.40;99.90
10336;DHT22;5213;53.548;9.930;2023-07-20T15:17:34;20.10;99.90
10336;DHT22;5213;53.548;9.930;2023-07-20T15:20:04;20.10;99.90
10336;DHT22;5213;53.548;9.930;2023-07-20T15:22:31;19.80;99.90
10336;DHT22;5213;53.548;9.930;2023-07-20T15:37:11;21.20;99.90
10336;DHT22;5213;53.548;9.930;2023-07-20T15:39:37;20.10;99.90
10336;DHT22;5213;53.548;9.930;2023-07-20T15:42:03;19.90;99.90
10336;DHT22;5213;53.548;9.930;2023-07-20T15:44:29;19.80;99.90
10336;DHT22;5213;53.548;9.930;2023-07-20T15:46:55;19.70;99.90
10336;DHT22;5213;53.548;9.930;2023-07-20T15:51:47;19.40;1.00
10336;DHT22;5213;53.548;9.930;2023-07-20T15:54:14;19.50;1.00
10336;DHT22;5213;53.548;9.930;2023-07-20T15:56:41;20.00;1.00
10336;DHT22;5213;53.548;9.930;2023-07-20T15:59:12;19.70;1.00
10336;DHT22;5213;53.548;9.930;2023-07-20T16:01:38;19.70;1.00
10336;DHT22;5213;53.548;9.930;2023-07-20T16:04:05;19.90;99.90
10336;DHT22;5213;53.548;9.930;2023-07-20T16:06:31;19.60;99.90
10336;DHT22;5213;53.548;9.930;2023-07-20T16:08:57;20.10;99.90
10336;DHT22;5213;53.548;9.930;2023-07-20T16:11:23;20.60;99.90
10336;DHT22;5213;53.548;9.930;2023-07-20T16:13:50;20.50;99.90
10336;DHT22;5213;53.548;9.930;2023-07-20T16:16:15;21.20;99.90
10336;DHT22;5213;53.548;9.930;2023-07-20T16:18:41;21.00;99.90
10336;DHT22;5213;53.548;9.930;2023-07-20T16:21:07;21.50;99.90
10336;DHT22;5213;53.548;9.930;2023-07-20T16:23:33;22.20;99.90
10336;DHT22;5213;53.548;9.930;2023-07-20T16:25:59;22.40;99.90
10336;DHT22;5213;53.548;9.930;2023-07-20T16:33:18;22.80;1.00
10336;DHT22;5213;53.548;9.930;2023-07-20T16:35:44;23.10;99.90
10336;DHT22;5213;53.548;9.930;2023-07-20T16:38:09;23.30;99.90
10336;DHT22;5213;53.548;9.930;2023-07-20T16:40:38;24.30;99.90